createdAt,value
2023-02-22T11:45:09.597Z,69.67
2023-02-22T11:48:21.314Z,67.15
2023-02-22T11:51:28.444Z,68.30
2023-02-22T11:54:45.037Z,67.81
2023-02-22T11:58:04.792Z,69.89
2023-02-22T12:01:21.531Z,67.38
2023-02-22T12:04:30.332Z,65.30
2023-02-22T12:07:48.809Z,68.26
2023-02-22T12:11:00.524Z,65.64
2023-02-22T12:14:25.648Z,65.67
2023-02-22T12:17:59.373Z,63.08
2023-02-22T12:21:07.852Z,66.79
2023-02-22T12:24:17.247Z,66.02
2023-02-22T12:27:39.397Z,65.30
2023-02-22T12:30:44.975Z,67.06
2023-02-22T12:34:15.970Z,67.37
2023-02-22T12:37:28.642Z,67.39
2023-02-22T12:40:40.092Z,65.28
2023-02-22T12:44:06.281Z,66.24
2023-02-22T12:47:16.608Z,66.10
2023-02-22T12:50:29.530Z,63.84
2023-02-22T12:53:37.394Z,64.52
2023-02-22T12:56:45.764Z,64.94
2023-02-22T12:59:52.858Z,66.14
2023-02-22T13:03:08.972Z,66.44
2023-02-22T13:06:31.363Z,65.53
2023-02-22T13:10:07.767Z,65.85
2023-02-22T13:13:34.908Z,64.98
2023-02-22T13:20:41.644Z,67.59
2023-02-22T13:24:05.009Z,63.93
2023-02-22T13:27:13.364Z,66.25
2023-02-22T13:30:22.494Z,64.76
2023-02-22T13:33:43.276Z,64.72
2023-02-22T13:37:02.284Z,64.45
2023-02-22T13:40:31.888Z,63.70
2023-02-22T13:43:45.178Z,64.60
2023-02-22T13:47:13.141Z,64.23
2023-02-22T13:50:34.707Z,63.58
2023-02-22T13:53:44.318Z,65.56
2023-02-22T13:56:49.717Z,65.02
2023-02-22T14:00:21.217Z,66.22
2023-02-22T14:03:41.224Z,65.10
2023-02-22T14:06:44.414Z,64.46
2023-02-22T14:09:50.061Z,64.11
2023-02-22T14:12:52.654Z,63.00
2023-02-22T14:16:01.240Z,65.05
2023-02-22T14:19:09.832Z,66.07
2023-02-22T14:22:13.814Z,62.88
2023-02-22T14:25:37.253Z,65.94
2023-02-22T14:28:50.627Z,66.04
2023-02-22T14:31:53.647Z,66.67
2023-02-22T14:35:14.266Z,65.32
2023-02-22T14:38:23.188Z,66.60
2023-02-22T14:41:30.381Z,66.05
2023-02-22T14:44:54.164Z,66.06
2023-02-22T14:48:20.957Z,65.48
2023-02-22T14:51:29.880Z,66.30
2023-02-22T14:54:58.236Z,64.35
2023-02-22T14:58:09.899Z,66.79
2023-02-22T15:01:49.013Z,67.20
2023-02-22T15:04:56.773Z,68.86
2023-02-22T15:08:07.412Z,68.71
2023-02-22T15:11:23.777Z,67.18
2023-02-22T15:14:27.063Z,66.55
2023-02-22T15:17:30.479Z,68.22
2023-02-22T15:20:38.032Z,68.06
2023-02-22T15:23:46.476Z,68.96
2023-02-22T15:27:01.039Z,68.95
2023-02-22T15:30:26.923Z,66.47
2023-02-22T15:33:34.506Z,67.50
2023-02-22T15:36:36.964Z,67.37
2023-02-22T15:39:44.174Z,68.20
2023-02-22T15:42:54.287Z,68.88
2023-02-22T15:45:58.445Z,68.61
2023-02-22T15:49:08.492Z,67.49
2023-02-22T15:52:32.286Z,67.67
2023-02-22T15:55:40.610Z,67.75
2023-02-22T15:58:46.835Z,68.82
2023-02-22T16:01:52.150Z,69.36
2023-02-22T16:05:12.257Z,68.38
2023-02-22T16:08:20.560Z,69.75
2023-02-22T16:11:38.665Z,69.00
2023-02-22T16:14:45.644Z,69.66
2023-02-22T16:18:01.658Z,69.61
2023-02-22T16:21:12.123Z,71.31
2023-02-22T16:24:27.105Z,72.63
2023-02-22T16:27:30.497Z,72.23
2023-02-22T16:30:42.883Z,70.99
2023-02-22T16:33:46.622Z,70.37
2023-02-22T16:36:54.463Z,69.99
2023-02-22T16:39:57.189Z,71.92
2023-02-22T16:43:02.666Z,72.10
2023-02-22T16:46:08.206Z,73.60
2023-02-22T16:49:12.766Z,73.27
2023-02-22T16:52:15.996Z,74.40
2023-02-22T16:55:21.108Z,74.78
2023-02-22T16:58:29.678Z,74.26
2023-02-22T17:01:35.274Z,75.86
2023-02-22T17:04:38.002Z,76.39
2023-02-22T17:07:42.577Z,74.90
2023-02-22T17:10:52.063Z,74.89
2023-02-22T17:13:59.664Z,74.56
2023-02-22T17:17:03.652Z,72.69
2023-02-22T17:20:12.169Z,73.45
2023-02-22T17:23:15.718Z,75.66
2023-02-22T17:26:19.962Z,75.04
2023-02-22T17:29:23.406Z,73.86
2023-02-22T17:32:28.484Z,76.51
2023-02-22T17:35:37.945Z,76.14
2023-02-22T17:38:44.907Z,77.54
2023-02-22T17:41:53.378Z,78.57
2023-02-22T17:45:03.052Z,78.72
2023-02-22T17:48:06.676Z,78.63
2023-02-22T17:51:13.112Z,78.23
2023-02-22T17:54:26.009Z,78.77
2023-02-22T17:57:31.577Z,78.80
2023-02-22T18:00:50.532Z,78.63
2023-02-22T18:03:57.951Z,78.93
2023-02-22T18:07:06.058Z,79.76
2023-02-22T18:10:14.335Z,79.09
2023-02-22T18:13:19.717Z,79.24
2023-02-22T18:16:23.942Z,79.78
2023-02-22T18:19:35.075Z,79.33
2023-02-22T18:22:44.155Z,79.51
2023-02-22T18:29:27.146Z,78.89
2023-02-22T18:32:32.707Z,78.40
2023-02-22T18:35:36.767Z,77.66
2023-02-22T18:38:43.806Z,77.12
2023-02-22T18:41:49.615Z,77.11
2023-02-22T18:44:55.742Z,76.97
2023-02-22T18:48:00.508Z,78.35
2023-02-22T18:51:07.626Z,77.00
2023-02-22T18:54:13.897Z,76.38
2023-02-22T18:57:18.843Z,77.50
2023-02-22T19:00:26.361Z,77.08
2023-02-22T19:03:33.198Z,76.76
2023-02-22T19:06:38.100Z,75.97
2023-02-22T19:09:42.499Z,75.75
2023-02-22T19:12:49.833Z,74.83
2023-02-22T19:15:55.211Z,75.00
2023-02-22T19:19:01.131Z,76.72
2023-02-22T19:22:06.466Z,76.74
2023-02-22T19:25:11.103Z,77.74
2023-02-22T19:28:22.524Z,77.57
2023-02-22T19:31:49.727Z,78.09
2023-02-22T19:36:00.569Z,78.97
2023-02-22T19:42:04.646Z,78.59
2023-02-22T19:57:41.176Z,81.22
2023-02-22T20:01:47.998Z,81.71
2023-02-22T20:05:09.127Z,81.58
2023-02-22T20:08:22.126Z,82.86
2023-02-22T20:11:28.785Z,83.22
2023-02-22T20:14:32.881Z,84.41
2023-02-22T20:17:36.986Z,84.35
2023-02-22T20:20:41.142Z,84.95
2023-02-22T20:23:46.241Z,85.98
2023-02-22T20:26:51.224Z,85.59
2023-02-22T20:29:56.103Z,85.21
2023-02-22T20:33:02.402Z,85.75
2023-02-22T20:36:16.153Z,85.56
2023-02-22T20:39:21.375Z,84.53
2023-02-22T20:42:56.786Z,83.21
2023-02-22T21:16:38.385Z,81.77
2023-02-22T21:19:45.235Z,81.80
2023-02-22T21:22:51.748Z,82.12
2023-02-22T21:25:58.835Z,82.38
2023-02-22T21:29:09.298Z,82.00
2023-02-22T21:32:16.053Z,82.80
2023-02-22T21:35:22.290Z,81.88
2023-02-22T21:38:28.009Z,81.99
2023-02-22T21:41:33.815Z,81.29
2023-02-22T21:44:40.476Z,82.09
2023-02-22T21:47:47.722Z,81.99
2023-02-22T21:50:54.722Z,82.87
2023-02-22T22:17:17.641Z,84.60
2023-02-22T22:20:34.105Z,85.07
2023-02-22T22:28:58.385Z,83.85
